Terminal Aerodrome Forecast
Issued by NWS Louisville, KY

Home | Current Version | Previous Version | Text Only | Print | Product List | Glossary On
Versions: 1 2 3 4 5 6 7 8 9 10 11 12 13 14 15
279
FTUS43 KLMK 221120
TAFBWG
TAF
KBWG 221120Z 2212/2312 17006KT P6SM OVC080
     FM221400 17010KT 6SM -SHRA SCT030 OVC040
     FM221500 16011KT 4SM SHRA BKN015 OVC025
     FM221900 15009KT P6SM BKN025
     FM222200 17009KT P6SM VCTS BKN027CB
     FM230200 18007KT P6SM OVC020=

USA.gov is the U.S. government's official web portal to all federal, state and local government web resources and services.